createdAt,value
2023-01-09T00:00:54.125Z,0.70
2023-01-09T00:03:21.588Z,1.17
2023-01-09T00:05:48.103Z,0.60
2023-01-09T00:08:15.040Z,0.80
2023-01-09T00:10:41.868Z,0.87
2023-01-09T00:13:11.760Z,1.63
2023-01-09T00:15:39.822Z,1.60
2023-01-09T00:18:06.867Z,1.50
2023-01-09T00:20:33.528Z,1.53
2023-01-09T00:23:00.097Z,1.10
2023-01-09T00:25:26.567Z,1.43
2023-01-09T00:27:53.156Z,1.33
2023-01-09T00:30:19.893Z,1.13
2023-01-09T00:32:46.439Z,1.80
2023-01-09T00:35:17.032Z,1.23
2023-01-09T00:37:43.758Z,1.37
2023-01-09T00:40:13.491Z,1.60
2023-01-09T00:42:45.638Z,1.70
2023-01-09T00:45:18.638Z,1.10
2023-01-09T00:47:50.073Z,1.63
2023-01-09T00:50:23.566Z,1.80
2023-01-09T00:52:52.927Z,1.10
2023-01-09T00:55:19.690Z,1.30
2023-01-09T00:57:47.142Z,3.83
2023-01-09T01:00:14.102Z,1.20
2023-01-09T01:02:40.806Z,1.00
2023-01-09T01:05:26.223Z,1.03
2023-01-09T01:07:52.921Z,0.93
2023-01-09T01:10:23.788Z,0.70
2023-01-09T01:12:51.189Z,0.80
2023-01-09T01:15:18.895Z,0.60
2023-01-09T01:17:45.621Z,2.10
2023-01-09T01:20:15.181Z,0.80
2023-01-09T01:22:44.846Z,0.93
2023-01-09T01:25:13.590Z,0.70
2023-01-09T01:27:40.175Z,0.70
2023-01-09T01:30:11.693Z,0.57
2023-01-09T01:32:39.752Z,2.37
2023-01-09T01:35:07.609Z,0.90
2023-01-09T01:37:36.997Z,0.70
2023-01-09T01:40:06.158Z,1.10
2023-01-09T01:42:33.205Z,0.50
2023-01-09T01:45:41.285Z,0.80
2023-01-09T01:48:15.884Z,1.03
2023-01-09T01:50:51.866Z,1.17
2023-01-09T01:53:29.771Z,1.97
2023-01-09T01:56:05.404Z,0.83
2023-01-09T01:58:36.418Z,0.90
2023-01-09T02:01:04.016Z,2.63
2023-01-09T02:03:30.918Z,0.60
2023-01-09T02:05:57.454Z,0.50
2023-01-09T02:08:24.067Z,0.43
2023-01-09T02:10:52.073Z,0.43
2023-01-09T02:13:19.517Z,0.70
2023-01-09T02:16:04.396Z,1.13
2023-01-09T02:18:41.813Z,0.50
2023-01-09T02:21:19.395Z,1.57
2023-01-09T02:24:20.450Z,0.50
2023-01-09T02:27:13.436Z,0.40
2023-01-09T02:30:14.424Z,1.07
2023-01-09T02:33:03.385Z,0.50
2023-01-09T02:35:57.197Z,0.97
2023-01-09T02:38:40.077Z,0.53
2023-01-09T02:41:14.907Z,0.50
2023-01-09T02:43:43.079Z,0.83
2023-01-09T02:46:20.046Z,0.30
2023-01-09T02:48:52.329Z,1.17
2023-01-09T02:51:29.036Z,0.50
2023-01-09T02:54:15.510Z,0.60
2023-01-09T02:57:07.344Z,0.40
2023-01-09T02:59:48.929Z,0.50
2023-01-09T03:02:29.604Z,1.70
2023-01-09T03:05:16.395Z,0.50
2023-01-09T03:07:56.456Z,0.50
2023-01-09T03:10:40.847Z,0.30
2023-01-09T03:13:11.843Z,0.77
2023-01-09T03:15:43.077Z,0.57
2023-01-09T03:18:11.955Z,3.87
2023-01-09T03:20:39.717Z,0.47
2023-01-09T03:23:09.261Z,0.50
2023-01-09T03:25:36.086Z,1.37
2023-01-09T03:28:08.521Z,1.27
2023-01-09T03:30:36.539Z,1.03
2023-01-09T03:33:03.183Z,0.77
2023-01-09T03:35:29.983Z,0.60
2023-01-09T03:37:56.709Z,0.57
2023-01-09T03:40:24.612Z,0.43
2023-01-09T03:42:51.199Z,1.03
2023-01-09T03:45:17.738Z,0.77
2023-01-09T03:47:45.437Z,1.43
2023-01-09T03:50:12.038Z,2.50
2023-01-09T03:52:38.692Z,1.30
2023-01-09T03:55:06.238Z,0.50
2023-01-09T03:57:32.803Z,1.10
2023-01-09T03:59:59.328Z,0.60
2023-01-09T04:02:25.958Z,0.53
2023-01-09T04:04:52.755Z,1.87
2023-01-09T04:07:19.363Z,1.63
2023-01-09T04:09:46.110Z,0.50
2023-01-09T04:12:12.755Z,1.33
2023-01-09T04:14:42.403Z,1.47
2023-01-09T04:17:08.957Z,0.97
2023-01-09T04:19:35.626Z,0.87
2023-01-09T04:22:02.213Z,0.50
2023-01-09T04:24:28.875Z,3.50
2023-01-09T04:26:56.089Z,0.70
2023-01-09T04:29:22.720Z,1.23
2023-01-09T04:31:49.337Z,1.50
2023-01-09T04:34:15.885Z,2.40
2023-01-09T04:36:43.205Z,1.87
2023-01-09T04:39:09.984Z,1.50
2023-01-09T04:41:51.818Z,1.73
2023-01-09T04:44:26.232Z,1.00
2023-01-09T04:46:54.108Z,1.13
2023-01-09T04:49:21.063Z,0.53
2023-01-09T04:51:48.067Z,2.60
2023-01-09T04:54:15.689Z,0.93
2023-01-09T04:56:42.245Z,2.70
2023-01-09T04:59:09.108Z,1.40
2023-01-09T05:01:37.188Z,2.37
2023-01-09T05:04:04.239Z,2.43
2023-01-09T05:06:31.737Z,1.27
2023-01-09T05:08:58.773Z,2.43
2023-01-09T05:11:25.664Z,1.27
2023-01-09T05:13:53.198Z,3.03
2023-01-09T05:16:20.805Z,0.47
2023-01-09T05:18:49.951Z,2.30
2023-01-09T05:21:16.666Z,4.20
2023-01-09T05:23:44.631Z,4.20
2023-01-09T05:26:11.183Z,2.63
2023-01-09T05:28:38.074Z,4.10
2023-01-09T05:31:05.108Z,0.77
2023-01-09T05:33:31.588Z,3.53
2023-01-09T05:35:58.223Z,1.70
2023-01-09T05:38:27.403Z,4.10
2023-01-09T05:40:54.469Z,2.87
2023-01-09T05:43:21.219Z,6.17
2023-01-09T05:45:47.981Z,6.10
2023-01-09T05:48:14.463Z,1.57
2023-01-09T05:50:41.050Z,5.47
2023-01-09T05:53:07.986Z,4.53
2023-01-09T05:55:34.543Z,3.73
2023-01-09T05:58:01.087Z,4.93
2023-01-09T06:00:27.724Z,7.27
2023-01-09T06:02:54.248Z,4.23
2023-01-09T06:05:20.890Z,2.10
2023-01-09T06:07:47.876Z,5.90
2023-01-09T06:10:15.617Z,7.07
2023-01-09T06:12:47.122Z,3.10
2023-01-09T06:15:15.532Z,4.33
2023-01-09T06:17:43.343Z,2.07
2023-01-09T06:20:11.919Z,5.93
2023-01-09T06:22:38.789Z,8.57
2023-01-09T06:25:06.587Z,9.70
2023-01-09T06:27:33.120Z,5.27
2023-01-09T06:29:59.932Z,6.83
2023-01-09T06:32:26.558Z,4.70
2023-01-09T06:34:53.174Z,5.87
2023-01-09T06:37:19.934Z,3.63
2023-01-09T06:39:47.158Z,5.93
2023-01-09T06:42:14.763Z,6.07
2023-01-09T06:44:41.226Z,3.73
2023-01-09T06:47:08.198Z,3.93
2023-01-09T06:49:34.799Z,5.60
2023-01-09T06:52:05.798Z,4.87
2023-01-09T06:54:32.371Z,4.93
2023-01-09T06:56:59.223Z,4.80
2023-01-09T06:59:26.105Z,5.30
2023-01-09T07:01:53.451Z,6.40
2023-01-09T07:04:22.016Z,4.03
2023-01-09T07:06:49.829Z,3.60
2023-01-09T07:09:16.399Z,7.60
2023-01-09T07:11:42.956Z,4.30
2023-01-09T07:14:09.827Z,3.60
2023-01-09T07:16:36.467Z,2.73
2023-01-09T07:19:03.246Z,3.37
2023-01-09T07:21:32.580Z,1.57
2023-01-09T07:23:59.302Z,4.37
2023-01-09T07:26:25.981Z,5.53
2023-01-09T07:28:52.780Z,2.53
2023-01-09T07:31:19.661Z,4.20
2023-01-09T07:33:47.176Z,1.53
2023-01-09T07:36:13.933Z,2.47
2023-01-09T07:38:40.543Z,2.43
2023-01-09T07:41:07.081Z,2.23
2023-01-09T07:43:34.037Z,4.63
2023-01-09T07:46:00.730Z,5.83
2023-01-09T07:48:28.012Z,4.70
2023-01-09T07:50:54.803Z,4.53
2023-01-09T07:53:22.215Z,3.50
2023-01-09T07:55:48.887Z,5.00
2023-01-09T07:58:15.676Z,5.83
2023-01-09T08:00:42.435Z,5.53
2023-01-09T08:03:09.527Z,4.40
2023-01-09T08:05:36.492Z,3.77
2023-01-09T08:08:03.299Z,1.83
2023-01-09T08:10:30.046Z,2.53
2023-01-09T08:12:58.961Z,5.07
2023-01-09T08:15:25.480Z,2.33
2023-01-09T08:17:51.987Z,3.63
2023-01-09T08:20:18.778Z,2.23
2023-01-09T08:22:50.850Z,3.47
2023-01-09T08:25:18.015Z,3.30
2023-01-09T08:27:44.794Z,3.87
2023-01-09T08:30:15.767Z,5.53
2023-01-09T08:32:43.354Z,4.47
2023-01-09T08:35:10.907Z,4.10
2023-01-09T08:37:37.708Z,3.20
2023-01-09T08:40:04.913Z,3.60
2023-01-09T08:42:50.538Z,3.43
2023-01-09T08:45:35.912Z,2.33
2023-01-09T08:48:02.430Z,3.13
2023-01-09T08:50:29.161Z,3.00
2023-01-09T08:52:55.668Z,2.73
2023-01-09T08:55:22.442Z,4.90
2023-01-09T08:57:50.408Z,1.90
2023-01-09T09:00:18.986Z,3.87
2023-01-09T09:02:45.690Z,4.57
2023-01-09T09:05:12.421Z,2.13
2023-01-09T09:07:42.170Z,7.50
2023-01-09T09:10:10.281Z,4.57
2023-01-09T09:12:37.968Z,1.60
2023-01-09T09:15:13.703Z,3.50
2023-01-09T09:17:40.777Z,4.33
2023-01-09T09:20:10.209Z,2.23
2023-01-09T09:22:41.963Z,4.83
2023-01-09T09:25:08.750Z,2.57
2023-01-09T09:27:36.632Z,5.07
2023-01-09T09:30:05.787Z,7.00
2023-01-09T09:32:32.667Z,3.87
2023-01-09T09:34:59.375Z,4.23
2023-01-09T09:37:26.203Z,4.90
2023-01-09T09:39:52.735Z,3.07
2023-01-09T09:42:57.060Z,2.77
2023-01-09T09:45:35.146Z,3.60
2023-01-09T09:48:20.731Z,7.97
2023-01-09T09:50:56.519Z,3.40
2023-01-09T09:53:38.660Z,4.40
2023-01-09T09:56:08.189Z,4.13
2023-01-09T09:58:38.787Z,1.87
2023-01-09T10:01:07.912Z,4.20
2023-01-09T10:03:47.705Z,3.23
2023-01-09T10:06:29.772Z,2.60
2023-01-09T10:09:29.509Z,1.93
2023-01-09T10:12:01.482Z,5.57
2023-01-09T10:14:28.283Z,4.33
2023-01-09T10:17:14.131Z,4.37
2023-01-09T10:20:24.940Z,4.43
2023-01-09T10:23:01.199Z,3.30
2023-01-09T10:25:45.932Z,3.10
2023-01-09T10:28:40.874Z,3.40
2023-01-09T10:31:25.533Z,2.90
2023-01-09T10:34:12.887Z,2.47
2023-01-09T10:36:49.156Z,3.07
2023-01-09T10:39:26.112Z,5.03
2023-01-09T10:42:07.731Z,2.37
2023-01-09T10:44:42.287Z,4.20
2023-01-09T10:47:16.921Z,3.80
2023-01-09T10:49:48.083Z,2.03
2023-01-09T10:52:20.726Z,3.13
2023-01-09T10:55:00.806Z,2.60
2023-01-09T10:57:33.976Z,6.63
2023-01-09T11:00:00.978Z,4.70
2023-01-09T11:02:34.772Z,3.50
2023-01-09T11:05:01.344Z,5.10
2023-01-09T11:07:35.860Z,5.10
2023-01-09T11:10:07.983Z,1.93
2023-01-09T11:12:36.733Z,5.17
2023-01-09T11:15:15.763Z,2.13
2023-01-09T11:17:46.752Z,4.07
2023-01-09T11:20:26.245Z,4.83
2023-01-09T11:22:55.352Z,3.50
2023-01-09T11:25:25.612Z,4.77
2023-01-09T11:28:02.390Z,3.43
2023-01-09T11:30:31.431Z,2.73
2023-01-09T11:32:59.165Z,3.27
2023-01-09T11:35:33.713Z,2.27
2023-01-09T11:38:05.589Z,5.53
2023-01-09T11:40:45.094Z,4.17
2023-01-09T11:43:14.275Z,2.70
2023-01-09T11:46:00.170Z,1.93
2023-01-09T11:48:39.146Z,2.40
2023-01-09T11:51:18.015Z,2.70
2023-01-09T11:54:10.757Z,4.07
2023-01-09T11:56:38.878Z,3.00
2023-01-09T11:59:13.571Z,3.73
2023-01-09T12:02:19.834Z,2.80
2023-01-09T12:05:04.487Z,7.10
2023-01-09T12:07:50.993Z,3.47
2023-01-09T12:10:30.914Z,3.03
2023-01-09T12:13:31.318Z,2.70
2023-01-09T12:16:22.386Z,3.00
2023-01-09T12:19:21.845Z,2.77
2023-01-09T12:22:35.313Z,5.43
2023-01-09T12:25:23.809Z,5.03
2023-01-09T12:28:15.036Z,3.57
2023-01-09T12:30:50.725Z,2.60
2023-01-09T12:33:37.282Z,2.93
2023-01-09T12:36:17.968Z,3.37
2023-01-09T12:38:49.349Z,3.13
2023-01-09T12:41:23.188Z,3.63
2023-01-09T12:44:08.805Z,3.77
2023-01-09T12:47:00.175Z,3.50
2023-01-09T12:49:38.839Z,4.37
2023-01-09T12:52:17.499Z,4.40
2023-01-09T12:54:51.739Z,7.70
2023-01-09T12:57:34.761Z,4.60
2023-01-09T13:00:21.922Z,3.50
2023-01-09T13:03:11.196Z,4.77
2023-01-09T13:05:53.422Z,4.03
2023-01-09T13:08:30.325Z,6.23
2023-01-09T13:11:01.580Z,2.13
2023-01-09T13:14:10.878Z,3.93
2023-01-09T13:16:49.988Z,5.17
2023-01-09T13:19:29.112Z,3.93
2023-01-09T13:21:59.028Z,15.93
2023-01-09T13:24:37.867Z,1.40
2023-01-09T13:27:15.674Z,1.23
2023-01-09T13:29:45.701Z,2.17
2023-01-09T13:32:37.446Z,2.33
2023-01-09T13:35:04.823Z,3.10
2023-01-09T13:37:34.981Z,3.57
2023-01-09T13:40:20.210Z,1.23
2023-01-09T13:43:04.982Z,2.43
2023-01-09T13:45:37.278Z,3.67
2023-01-09T13:48:11.237Z,3.47
2023-01-09T13:50:39.334Z,3.30
2023-01-09T13:53:18.428Z,3.50
2023-01-09T13:55:57.598Z,3.67
2023-01-09T13:58:48.891Z,3.50
2023-01-09T14:01:42.405Z,2.57
2023-01-09T14:04:17.992Z,3.30
2023-01-09T14:07:30.107Z,2.90
2023-01-09T14:10:01.265Z,3.03
2023-01-09T14:12:32.552Z,3.97
2023-01-09T14:15:02.430Z,2.63
2023-01-09T14:17:36.290Z,2.87
2023-01-09T14:20:07.318Z,5.60
2023-01-09T14:22:46.090Z,4.00
2023-01-09T14:25:26.125Z,3.23
2023-01-09T14:27:55.718Z,8.63
2023-01-09T14:30:55.165Z,10.63
2023-01-09T14:33:22.620Z,5.33
2023-01-09T14:36:16.075Z,4.63
2023-01-09T14:38:59.879Z,5.90
2023-01-09T14:42:05.851Z,4.73
2023-01-09T14:44:46.826Z,4.67
2023-01-09T14:47:31.680Z,2.47
2023-01-09T14:50:16.768Z,4.37
2023-01-09T14:53:08.497Z,4.20
2023-01-09T14:55:51.437Z,5.90
2023-01-09T14:58:21.642Z,2.23
2023-01-09T15:00:57.045Z,5.50
2023-01-09T15:03:26.870Z,5.17
2023-01-09T15:05:54.454Z,1.73
2023-01-09T15:08:26.011Z,2.90
2023-01-09T15:10:56.136Z,2.83
2023-01-09T15:13:41.434Z,2.63
2023-01-09T15:16:18.463Z,1.90
2023-01-09T15:18:48.458Z,3.03
2023-01-09T15:21:20.226Z,2.90
2023-01-09T15:23:46.915Z,3.97
2023-01-09T15:26:31.679Z,3.00
2023-01-09T15:29:10.331Z,4.17
2023-01-09T15:31:45.839Z,4.73
2023-01-09T15:34:20.131Z,2.83
2023-01-09T15:36:49.515Z,5.90
2023-01-09T15:39:28.007Z,4.27
2023-01-09T15:42:14.403Z,2.63
2023-01-09T15:44:44.003Z,3.00
2023-01-09T15:47:18.858Z,3.43
2023-01-09T15:49:46.955Z,3.73
2023-01-09T15:52:16.987Z,4.20
2023-01-09T15:54:46.627Z,2.17
2023-01-09T15:57:33.650Z,3.60
2023-01-09T16:00:23.734Z,5.60
2023-01-09T16:03:08.766Z,3.43
2023-01-09T16:05:40.886Z,2.67
2023-01-09T16:08:20.540Z,3.50
2023-01-09T16:10:56.385Z,5.27
2023-01-09T16:13:25.636Z,4.03
2023-01-09T16:15:53.257Z,3.17
2023-01-09T16:18:23.055Z,1.97
2023-01-09T16:20:49.720Z,6.93
2023-01-09T16:23:23.331Z,5.83
2023-01-09T16:25:50.043Z,15.07
2023-01-09T16:28:26.983Z,3.03
2023-01-09T16:31:09.441Z,1.73
2023-01-09T16:33:43.295Z,1.50
2023-01-09T16:36:10.906Z,2.53
2023-01-09T16:38:39.127Z,2.00
2023-01-09T16:41:26.156Z,2.40
2023-01-09T16:43:57.966Z,1.83
2023-01-09T16:46:26.557Z,4.03
2023-01-09T16:48:54.690Z,2.00
2023-01-09T16:51:23.009Z,2.00
2023-01-09T16:53:50.113Z,1.77
2023-01-09T16:56:23.450Z,1.30
2023-01-09T16:58:51.034Z,1.20
2023-01-09T17:01:18.203Z,2.10
2023-01-09T17:03:45.126Z,1.97
2023-01-09T17:06:21.138Z,0.43
2023-01-09T17:08:51.462Z,1.73
2023-01-09T17:11:24.359Z,2.97
2023-01-09T17:13:51.632Z,1.30
2023-01-09T17:16:20.375Z,0.80
2023-01-09T17:18:50.190Z,1.20
2023-01-09T17:21:22.463Z,1.03
2023-01-09T17:24:09.657Z,1.47
2023-01-09T17:26:56.435Z,2.03
2023-01-09T17:29:24.726Z,1.60
2023-01-09T17:31:52.042Z,1.17
2023-01-09T17:34:20.379Z,1.50
2023-01-09T17:36:47.046Z,1.47
2023-01-09T17:39:15.495Z,0.83
2023-01-09T17:41:42.429Z,1.27
2023-01-09T17:44:11.160Z,1.60
2023-01-09T17:46:41.316Z,1.73
2023-01-09T17:49:15.093Z,2.33
2023-01-09T17:51:41.811Z,2.03
2023-01-09T17:54:09.679Z,1.53
2023-01-09T17:56:39.276Z,0.80
2023-01-09T17:59:11.494Z,2.03
2023-01-09T18:01:39.712Z,4.23
2023-01-09T18:04:06.583Z,2.03
2023-01-09T18:06:33.198Z,3.33
2023-01-09T18:08:59.750Z,1.63
2023-01-09T18:11:26.872Z,1.83
2023-01-09T18:13:58.864Z,2.90
2023-01-09T18:16:32.517Z,4.40
2023-01-09T18:19:01.447Z,9.83
2023-01-09T18:21:31.088Z,14.33
2023-01-09T18:23:59.371Z,20.57
2023-01-09T18:26:28.621Z,22.83
2023-01-09T18:28:57.261Z,33.63
2023-01-09T18:31:25.620Z,21.70
2023-01-09T18:33:54.075Z,8.80
2023-01-09T18:36:24.317Z,5.10
2023-01-09T18:38:53.245Z,5.10
2023-01-09T18:41:20.426Z,4.53
2023-01-09T18:43:55.307Z,4.37
2023-01-09T18:46:25.515Z,4.60
2023-01-09T18:48:54.320Z,4.07
2023-01-09T18:51:22.855Z,2.97
2023-01-09T18:53:50.616Z,7.33
2023-01-09T18:56:19.333Z,3.33
2023-01-09T18:58:46.921Z,2.30
2023-01-09T19:01:15.632Z,4.90
2023-01-09T19:03:45.115Z,4.33
2023-01-09T19:06:12.616Z,2.17
2023-01-09T19:08:39.235Z,3.33
2023-01-09T19:11:06.259Z,2.27
2023-01-09T19:13:36.770Z,7.10
2023-01-09T19:16:05.674Z,2.63
2023-01-09T19:18:34.263Z,3.53
2023-01-09T19:21:00.933Z,2.17
2023-01-09T19:23:27.550Z,2.63
2023-01-09T19:25:54.748Z,3.07
2023-01-09T19:28:21.584Z,3.27
2023-01-09T19:30:55.341Z,3.23
2023-01-09T19:33:21.833Z,3.50
2023-01-09T19:35:49.572Z,2.90
2023-01-09T19:38:16.267Z,6.30
2023-01-09T19:40:43.012Z,2.73
2023-01-09T19:43:09.792Z,3.80
2023-01-09T19:45:39.081Z,4.00
2023-01-09T19:48:06.099Z,3.80
2023-01-09T19:50:32.999Z,3.47
2023-01-09T19:52:59.481Z,5.27
2023-01-09T19:55:26.033Z,6.83
2023-01-09T19:57:52.508Z,5.03
2023-01-09T20:00:19.384Z,3.83
2023-01-09T20:02:49.540Z,5.67
2023-01-09T20:05:17.365Z,5.07
2023-01-09T20:07:43.994Z,3.53
2023-01-09T20:10:11.023Z,3.13
2023-01-09T20:12:37.665Z,3.47
2023-01-09T20:15:05.065Z,4.53
2023-01-09T20:17:33.178Z,3.57
2023-01-09T20:19:59.801Z,3.53
2023-01-09T20:22:26.811Z,3.57
2023-01-09T20:24:54.359Z,4.50
2023-01-09T20:27:20.886Z,8.60
2023-01-09T20:29:48.165Z,4.13
2023-01-09T20:32:16.890Z,2.20
2023-01-09T20:34:46.645Z,1.87
2023-01-09T20:37:14.848Z,2.90
2023-01-09T20:39:41.501Z,3.37
2023-01-09T20:42:08.794Z,4.23
2023-01-09T20:44:35.462Z,1.80
2023-01-09T20:47:03.685Z,3.37
2023-01-09T20:49:30.200Z,4.40
2023-01-09T20:51:57.139Z,2.70
2023-01-09T20:54:23.898Z,2.87
2023-01-09T20:56:51.035Z,5.30
2023-01-09T20:59:22.752Z,3.80
2023-01-09T21:01:51.011Z,4.40
2023-01-09T21:04:18.601Z,5.77
2023-01-09T21:06:45.775Z,5.33
2023-01-09T21:09:14.143Z,3.83
2023-01-09T21:11:40.666Z,3.93
2023-01-09T21:14:07.525Z,6.57
2023-01-09T21:16:34.198Z,4.23
2023-01-09T21:19:00.800Z,4.40
2023-01-09T21:21:28.808Z,3.80
2023-01-09T21:23:59.028Z,4.67
2023-01-09T21:26:30.841Z,6.67
2023-01-09T21:29:02.139Z,3.77
2023-01-09T21:31:34.602Z,4.03
2023-01-09T21:34:04.652Z,3.77
2023-01-09T21:36:31.716Z,4.03
2023-01-09T21:39:07.824Z,3.00
2023-01-09T21:42:03.791Z,4.47
2023-01-09T21:44:49.236Z,5.93
2023-01-09T21:47:15.879Z,5.23
2023-01-09T21:49:44.198Z,2.27
2023-01-09T21:52:13.957Z,3.80
2023-01-09T21:54:41.970Z,2.27
2023-01-09T21:57:09.140Z,2.87
2023-01-09T21:59:35.657Z,3.07
2023-01-09T22:02:02.351Z,2.10
2023-01-09T22:04:29.207Z,2.03
2023-01-09T22:06:56.797Z,1.93
2023-01-09T22:09:23.375Z,3.13
2023-01-09T22:11:50.088Z,1.47
2023-01-09T22:14:18.029Z,1.57
2023-01-09T22:16:45.955Z,1.77
2023-01-09T22:19:16.281Z,3.43
2023-01-09T22:21:42.793Z,1.90
2023-01-09T22:24:15.600Z,2.17
2023-01-09T22:26:44.162Z,2.07
2023-01-09T22:29:12.321Z,1.67
2023-01-09T22:31:43.173Z,2.43
2023-01-09T22:34:14.042Z,2.70
2023-01-09T22:36:41.758Z,1.77
2023-01-09T22:39:13.991Z,2.77
2023-01-09T22:41:40.959Z,2.33
2023-01-09T22:44:09.582Z,1.43
2023-01-09T22:46:36.119Z,1.53
2023-01-09T22:49:05.444Z,2.97
2023-01-09T22:51:35.129Z,2.07
2023-01-09T22:54:01.948Z,2.40
2023-01-09T22:56:33.749Z,3.20
2023-01-09T22:59:01.029Z,5.13
2023-01-09T23:01:28.337Z,4.23
2023-01-09T23:03:54.865Z,3.07
2023-01-09T23:06:22.600Z,2.70
2023-01-09T23:08:51.151Z,2.20
2023-01-09T23:11:42.919Z,2.63
2023-01-09T23:14:10.571Z,4.33
2023-01-09T23:16:37.502Z,1.50
2023-01-09T23:19:09.040Z,2.10
2023-01-09T23:21:37.018Z,1.90
2023-01-09T23:24:03.925Z,3.03
2023-01-09T23:26:30.531Z,2.23
2023-01-09T23:28:56.985Z,1.57
2023-01-09T23:31:27.607Z,2.67
2023-01-09T23:33:55.157Z,1.77
2023-01-09T23:36:22.795Z,2.40
2023-01-09T23:38:49.703Z,1.13
2023-01-09T23:41:16.607Z,1.13
2023-01-09T23:43:48.770Z,1.03
2023-01-09T23:46:15.349Z,1.50
2023-01-09T23:48:41.870Z,2.03
2023-01-09T23:51:08.561Z,3.23
2023-01-09T23:53:35.155Z,1.03
2023-01-09T23:56:03.162Z,1.10
2023-01-09T23:58:30.038Z,1.43
